createdAt,value
2022-11-04T00:01:34.677Z,99915.05
2022-11-04T00:04:42.435Z,99918.58
2022-11-04T00:08:05.066Z,99918.05
2022-11-04T00:11:30.055Z,99913.94
2022-11-04T00:14:36.856Z,99920.78
2022-11-04T00:17:43.625Z,99919.61
2022-11-04T00:21:07.005Z,99921.16
2022-11-04T00:24:30.388Z,99920.62
2022-11-04T00:27:54.119Z,99929.27
2022-11-04T00:30:59.645Z,99925.23
2022-11-04T00:34:06.261Z,99929.66
2022-11-04T00:37:13.743Z,99928.81
2022-11-04T00:40:20.314Z,99936.48
2022-11-04T00:43:25.512Z,99936.27
2022-11-04T00:46:31.453Z,99936.34
2022-11-04T00:49:38.254Z,99945.92
2022-11-04T00:52:45.510Z,99948.17
2022-11-04T00:55:51.192Z,99941.72
2022-11-04T00:58:58.082Z,99954.46
2022-11-04T01:02:04.823Z,99961.11
2022-11-04T01:05:11.742Z,99962.10
2022-11-04T01:08:17.657Z,99960.59
2022-11-04T01:11:23.474Z,99966.86
2022-11-04T01:14:29.617Z,99961.23
2022-11-04T01:17:37.197Z,99962.93
2022-11-04T01:20:43.243Z,99965.67
2022-11-04T01:23:51.842Z,99968.38
2022-11-04T01:26:58.702Z,99971.97
2022-11-04T01:30:05.714Z,99973.33
2022-11-04T01:33:13.599Z,99972.11
2022-11-04T01:36:20.297Z,99977.04
2022-11-04T01:39:27.229Z,99980.97
2022-11-04T01:42:39.294Z,99978.05
2022-11-04T01:45:46.118Z,99977.06
2022-11-04T01:48:52.839Z,99978.93
2022-11-04T01:51:59.571Z,99980.59
2022-11-04T01:55:05.199Z,99995.05
2022-11-04T01:58:13.985Z,99991.33
2022-11-04T02:01:20.185Z,99985.37
2022-11-04T02:04:32.583Z,99995.44
2022-11-04T02:07:38.809Z,99999.83
2022-11-04T02:10:46.872Z,100002.94
2022-11-04T02:13:53.127Z,99996.98
2022-11-04T02:17:01.338Z,99998.69
2022-11-04T02:20:18.377Z,100004.14
2022-11-04T02:24:07.199Z,100004.14
2022-11-04T02:27:34.286Z,100003.28
2022-11-04T02:30:39.741Z,100013.13
2022-11-04T02:33:58.658Z,100020.08
2022-11-04T02:37:40.329Z,100023.47
2022-11-04T02:41:24.327Z,100027.55
2022-11-04T02:44:35.140Z,100030.66
2022-11-04T02:47:43.668Z,100044.26
2022-11-04T02:51:08.228Z,100037.97
2022-11-04T02:54:38.125Z,100035.70
2022-11-04T02:57:45.937Z,100038.58
2022-11-04T03:00:53.230Z,100034.22
2022-11-04T03:04:03.912Z,100026.20
2022-11-04T03:07:09.527Z,100021.84
2022-11-04T03:10:21.576Z,100019.59
2022-11-04T03:13:33.838Z,100021.75
2022-11-04T03:16:48.213Z,100030.28
2022-11-04T03:20:14.470Z,100046.63
2022-11-04T03:23:20.779Z,100049.25
2022-11-04T03:26:45.010Z,100052.74
2022-11-04T03:29:55.007Z,100058.23
2022-11-04T03:33:24.850Z,100062.98
2022-11-04T03:36:30.996Z,100056.38
2022-11-04T03:39:37.564Z,100054.99
2022-11-04T03:42:44.094Z,100061.29
2022-11-04T03:45:49.960Z,100059.31
2022-11-04T03:48:55.364Z,100057.06
2022-11-04T03:52:00.050Z,100072.93
2022-11-04T03:55:06.627Z,100066.06
2022-11-04T03:58:10.308Z,100068.44
2022-11-04T04:01:24.477Z,100067.13
2022-11-04T04:04:45.876Z,100071.23
2022-11-04T04:07:57.507Z,100073.27
2022-11-04T04:11:43.752Z,100096.58
2022-11-04T04:14:56.535Z,100087.27
2022-11-04T04:18:15.582Z,100088.70
2022-11-04T04:21:21.813Z,100086.22
2022-11-04T04:24:45.007Z,100092.88
2022-11-04T04:27:51.618Z,100092.14
2022-11-04T04:31:00.244Z,100102.66
2022-11-04T04:34:05.094Z,100104.48
2022-11-04T04:37:24.126Z,100103.50
2022-11-04T04:40:49.267Z,100109.25
2022-11-04T04:44:07.814Z,100118.19
2022-11-04T04:47:14.472Z,100122.95
2022-11-04T04:50:21.611Z,100118.16
2022-11-04T04:53:28.068Z,100122.63
2022-11-04T04:56:33.239Z,100127.89
2022-11-04T04:59:38.665Z,100138.09
2022-11-04T05:02:44.627Z,100150.80
2022-11-04T05:05:50.265Z,100151.27
2022-11-04T05:08:56.680Z,100154.31
2022-11-04T05:12:02.138Z,100147.34
2022-11-04T05:15:08.175Z,100151.01
2022-11-04T05:18:15.365Z,100144.94
2022-11-04T05:21:23.868Z,100153.14
2022-11-04T05:24:31.779Z,100155.94
2022-11-04T05:27:37.126Z,100153.94
2022-11-04T05:30:42.717Z,100154.31
2022-11-04T05:33:48.644Z,100167.95
2022-11-04T05:36:56.335Z,100168.87
2022-11-04T05:40:02.527Z,100173.20
2022-11-04T05:43:08.722Z,100178.56
2022-11-04T05:46:15.540Z,100178.74
2022-11-04T05:49:24.578Z,100181.09
2022-11-04T05:52:30.559Z,100184.91
2022-11-04T05:55:46.437Z,100198.98
2022-11-04T05:58:55.407Z,100195.95
2022-11-04T06:02:05.084Z,100207.88
2022-11-04T06:05:12.056Z,100213.59
2022-11-04T06:08:18.948Z,100203.73
2022-11-04T06:11:25.617Z,100207.06
2022-11-04T06:14:32.170Z,100213.45
2022-11-04T06:17:38.990Z,100216.61
2022-11-04T06:20:44.520Z,100213.85
2022-11-04T06:23:49.383Z,100213.37
2022-11-04T06:26:55.974Z,100214.81
2022-11-04T06:30:02.029Z,100214.20
2022-11-04T06:33:09.159Z,100214.30
2022-11-04T06:36:16.847Z,100216.70
2022-11-04T06:39:24.900Z,100218.44
2022-11-04T06:42:32.869Z,100219.87
2022-11-04T06:45:39.287Z,100220.63
2022-11-04T06:48:46.436Z,100220.13
2022-11-04T06:51:57.460Z,100227.70
2022-11-04T06:55:08.599Z,100222.41
2022-11-04T06:58:14.293Z,100227.47
2022-11-04T07:01:24.641Z,100229.58
2022-11-04T07:04:28.925Z,100218.05
2022-11-04T07:07:34.414Z,100220.56
2022-11-04T07:10:39.517Z,100224.02
2022-11-04T07:13:44.975Z,100220.53
2022-11-04T07:16:51.126Z,100222.82
2022-11-04T07:19:58.098Z,100229.30
2022-11-04T07:23:05.305Z,100230.56
2022-11-04T07:26:16.084Z,100229.37
2022-11-04T07:29:25.271Z,100233.98
2022-11-04T07:32:30.924Z,100227.03
2022-11-04T07:35:36.552Z,100232.17
2022-11-04T07:38:42.139Z,100239.52
2022-11-04T07:41:48.410Z,100239.17
2022-11-04T07:44:54.093Z,100245.83
2022-11-04T07:47:58.781Z,100242.92
2022-11-04T07:51:07.615Z,100234.02
2022-11-04T07:54:16.700Z,100242.22
2022-11-04T07:57:16.973Z,100242.17
2022-11-04T08:00:10.124Z,100244.58
2022-11-04T08:03:16.723Z,100235.84
2022-11-04T08:06:23.694Z,100237.41
2022-11-04T08:09:29.921Z,100232.77
2022-11-04T08:12:36.043Z,100235.82
2022-11-04T08:15:42.848Z,100239.38
2022-11-04T08:18:49.110Z,100243.95
2022-11-04T08:21:54.974Z,100248.88
2022-11-04T08:25:02.128Z,100245.41
2022-11-04T08:28:08.233Z,100250.50
2022-11-04T08:31:23.390Z,100245.39
2022-11-04T08:34:29.424Z,100253.24
2022-11-04T08:37:35.488Z,100249.97
2022-11-04T08:40:41.610Z,100253.66
2022-11-04T12:34:58.229Z,100210.95
2022-11-04T12:38:33.184Z,100219.96
2022-11-04T12:42:19.676Z,100227.91
2022-11-04T12:44:59.027Z,100225.48
2022-11-04T12:48:05.021Z,100226.73
2022-11-04T12:51:25.782Z,100233.84
2022-11-04T12:55:08.911Z,100232.59
2022-11-04T12:58:36.596Z,100230.85
2022-11-04T13:01:48.947Z,100241.11
2022-11-04T13:05:05.583Z,100236.34
2022-11-04T13:08:25.017Z,100240.33
2022-11-04T13:11:37.052Z,100243.85
2022-11-04T13:14:45.076Z,100240.20
2022-11-04T13:17:53.561Z,100239.75
2022-11-04T13:21:16.230Z,100232.86
2022-11-04T13:24:43.118Z,100231.17
2022-11-04T13:27:58.321Z,100223.53
2022-11-04T13:31:26.020Z,100219.26
2022-11-04T13:35:02.086Z,100231.45
2022-11-04T13:38:20.132Z,100230.87
2022-11-04T13:42:03.672Z,100220.67
2022-11-04T13:45:10.963Z,100222.16
2022-11-04T13:48:31.309Z,100227.20
2022-11-04T13:51:38.144Z,100224.13
2022-11-04T13:54:57.383Z,100227.23
2022-11-04T13:58:10.852Z,100226.53
2022-11-04T14:01:28.134Z,100227.90
2022-11-04T14:04:45.686Z,100224.66
2022-11-04T14:08:19.467Z,100230.13
2022-11-04T14:11:25.986Z,100228.25
2022-11-04T14:14:26.865Z,100222.29
2022-11-04T14:17:55.497Z,100233.70
2022-11-04T14:21:28.926Z,100231.16
2022-11-04T14:24:34.777Z,100235.40
2022-11-04T14:27:47.605Z,100241.91
2022-11-04T14:31:05.572Z,100244.77
2022-11-04T14:34:12.154Z,100250.75
2022-11-04T14:37:36.489Z,100252.06
2022-11-04T14:40:48.019Z,100257.89
2022-11-04T14:43:58.127Z,100256.55
2022-11-04T14:47:07.244Z,100258.77
2022-11-04T14:50:17.923Z,100253.79
2022-11-04T14:53:27.934Z,100259.30
2022-11-04T14:56:36.647Z,100259.30
2022-11-04T14:59:42.870Z,100254.52
2022-11-04T15:02:42.348Z,100247.34
2022-11-04T15:05:50.733Z,100243.63
2022-11-04T15:08:59.656Z,100239.83
2022-11-04T15:12:25.760Z,100242.84
2022-11-04T15:15:52.743Z,100250.39
2022-11-04T15:18:58.811Z,100251.11
2022-11-04T15:22:04.933Z,100252.66
2022-11-04T15:25:10.012Z,100257.28
2022-11-04T15:28:16.156Z,100251.80
2022-11-04T15:31:33.328Z,100250.26
2022-11-04T15:34:43.271Z,100250.94
2022-11-04T15:37:49.181Z,100256.20
2022-11-04T15:40:55.870Z,100252.80
2022-11-04T15:44:02.247Z,100251.78
2022-11-04T15:47:13.994Z,100252.75
2022-11-04T15:50:20.504Z,100257.53
2022-11-04T15:53:29.030Z,100257.86
2022-11-04T15:56:38.505Z,100257.39
2022-11-04T15:59:49.566Z,100253.64
2022-11-04T16:03:02.968Z,100253.00
2022-11-04T16:06:20.444Z,100255.56
2022-11-04T16:09:41.620Z,100260.99
2022-11-04T16:12:51.795Z,100257.25
2022-11-04T16:16:16.238Z,100259.16
2022-11-04T16:19:27.692Z,100257.44
2022-11-04T16:22:51.027Z,100256.22
2022-11-04T16:25:57.686Z,100256.92
2022-11-04T16:29:04.009Z,100258.27
2022-11-04T16:32:31.882Z,100265.42
2022-11-04T16:35:40.662Z,100259.62
2022-11-04T16:38:46.748Z,100262.31
2022-11-04T16:41:55.326Z,100267.14
2022-11-04T16:45:06.627Z,100268.33
2022-11-04T16:48:13.647Z,100274.45
2022-11-04T16:51:20.097Z,100268.50
2022-11-04T16:54:27.163Z,100269.52
2022-11-04T16:57:33.324Z,100273.47
2022-11-04T17:00:43.639Z,100266.59
2022-11-04T17:03:49.816Z,100268.32
2022-11-04T17:06:56.741Z,100269.52
2022-11-04T17:10:02.950Z,100264.08
2022-11-04T17:13:08.696Z,100264.93
2022-11-04T17:16:15.982Z,100264.36
2022-11-04T17:19:21.043Z,100257.55
2022-11-04T17:22:27.685Z,100255.17
2022-11-04T17:25:39.908Z,100263.70
2022-11-04T17:28:46.273Z,100260.31
2022-11-04T17:31:54.142Z,100258.28
2022-11-04T17:35:00.887Z,100261.19
2022-11-04T17:38:07.620Z,100265.78
2022-11-04T17:41:32.046Z,100260.63
2022-11-04T17:44:30.736Z,100259.80
2022-11-04T17:47:17.528Z,100251.97
2022-11-04T17:50:11.720Z,100259.92
2022-11-04T17:53:17.029Z,100259.42
2022-11-04T17:56:30.953Z,100257.73
2022-11-04T17:59:37.407Z,100258.24
2022-11-04T18:02:44.473Z,100256.20
2022-11-04T18:05:50.383Z,100260.81
2022-11-04T18:08:56.501Z,100257.41
2022-11-04T18:12:22.115Z,100260.31
2022-11-04T18:15:28.989Z,100262.54
2022-11-04T18:18:33.938Z,100262.83
2022-11-04T18:21:40.453Z,100261.98
2022-11-04T18:24:46.857Z,100273.16
2022-11-04T18:27:52.841Z,100272.17
2022-11-04T18:30:58.805Z,100268.67
2022-11-04T18:34:05.270Z,100265.30
2022-11-04T18:37:12.594Z,100259.94
2022-11-04T18:40:18.201Z,100269.72
2022-11-04T18:43:24.723Z,100267.63
2022-11-04T18:46:31.700Z,100265.78
2022-11-04T18:49:36.307Z,100265.80
2022-11-04T18:52:41.632Z,100268.45
2022-11-04T18:55:48.821Z,100269.70
2022-11-04T18:58:49.048Z,100267.09
2022-11-04T19:01:59.177Z,100266.29
2022-11-04T19:05:06.209Z,100270.47
2022-11-04T19:08:12.046Z,100268.63
2022-11-04T19:11:19.901Z,100277.63
2022-11-04T19:14:27.056Z,100277.50
2022-11-04T19:17:32.013Z,100282.17
2022-11-04T19:20:37.688Z,100294.59
2022-11-04T19:23:44.980Z,100298.20
2022-11-04T19:26:51.581Z,100305.21
2022-11-04T19:29:57.333Z,100304.02
2022-11-04T19:33:04.506Z,100308.07
2022-11-04T19:36:09.770Z,100312.04
2022-11-04T19:39:18.582Z,100311.84
2022-11-04T19:42:43.813Z,100311.16
2022-11-04T19:46:01.376Z,100318.04
2022-11-04T19:49:04.913Z,100319.45
2022-11-04T19:52:12.443Z,100311.92
2022-11-04T19:55:17.881Z,100311.13
2022-11-04T19:58:23.753Z,100315.97
2022-11-04T20:01:30.278Z,100308.64
2022-11-04T20:04:36.982Z,100315.12
2022-11-04T20:07:45.699Z,100311.53
2022-11-04T20:10:55.888Z,100314.25
2022-11-04T20:14:07.789Z,100306.64
2022-11-04T20:17:12.374Z,100309.09
2022-11-04T20:20:18.629Z,100307.77
2022-11-04T20:23:24.336Z,100313.45
2022-11-04T20:26:26.695Z,100311.06
2022-11-04T20:29:33.543Z,100310.17
2022-11-04T20:32:39.211Z,100317.28
2022-11-04T20:35:45.113Z,100312.22
2022-11-04T20:38:52.300Z,100307.84
2022-11-04T20:41:58.444Z,100311.42
2022-11-04T20:45:04.385Z,100309.91
2022-11-04T20:48:12.490Z,100311.58
2022-11-04T20:51:27.230Z,100312.78
2022-11-04T20:54:33.258Z,100313.62
2022-11-04T20:57:39.214Z,100314.65
2022-11-04T21:00:45.555Z,100307.87
2022-11-04T21:03:52.142Z,100307.54
2022-11-04T21:06:58.197Z,100306.94
2022-11-04T21:10:03.344Z,100315.20
2022-11-04T21:13:09.771Z,100306.61
2022-11-04T21:16:16.478Z,100306.83
2022-11-04T21:19:22.956Z,100312.02
2022-11-04T21:22:29.550Z,100308.56
2022-11-04T21:25:37.075Z,100308.64
2022-11-04T21:28:43.396Z,100308.39
2022-11-04T21:31:51.273Z,100311.16
2022-11-04T21:34:57.288Z,100307.46
2022-11-04T21:38:04.007Z,100301.13
2022-11-04T21:41:22.603Z,100301.64
2022-11-04T21:44:28.700Z,100301.30
2022-11-04T21:47:34.406Z,100298.02
2022-11-04T21:50:40.178Z,100298.28
2022-11-04T21:53:45.668Z,100300.62
2022-11-04T21:56:52.502Z,100297.72
2022-11-04T21:59:57.853Z,100295.13
2022-11-04T22:03:04.436Z,100292.70
2022-11-04T22:06:13.700Z,100292.91
2022-11-04T22:09:21.139Z,100297.81
2022-11-04T22:12:28.186Z,100294.50
2022-11-04T22:15:52.594Z,100300.49
2022-11-04T22:19:01.139Z,100291.71
2022-11-04T22:22:07.822Z,100288.67
2022-11-04T22:25:15.000Z,100290.83
2022-11-04T22:28:21.915Z,100293.42
2022-11-04T22:31:32.064Z,100297.50
2022-11-04T22:34:38.064Z,100295.28
2022-11-04T22:37:44.342Z,100297.78
2022-11-04T22:40:49.905Z,100301.23
2022-11-04T22:43:56.133Z,100304.03
2022-11-04T22:47:03.128Z,100296.66
2022-11-04T22:50:04.226Z,100298.91
2022-11-04T22:53:10.652Z,100304.00
2022-11-04T22:56:18.391Z,100301.41
2022-11-04T22:59:24.877Z,100311.73
2022-11-04T23:02:33.961Z,100311.92
2022-11-04T23:05:37.443Z,100316.83
2022-11-04T23:08:43.896Z,100314.92
2022-11-04T23:12:07.456Z,100312.34
2022-11-04T23:15:33.157Z,100319.86
2022-11-04T23:18:51.572Z,100325.09
2022-11-04T23:22:15.102Z,100325.37
2022-11-04T23:25:21.848Z,100318.87
2022-11-04T23:28:46.241Z,100322.25
2022-11-04T23:31:52.547Z,100324.38
2022-11-04T23:35:16.316Z,100329.11
2022-11-04T23:38:21.991Z,100331.33
2022-11-04T23:41:45.485Z,100329.39
2022-11-04T23:45:08.822Z,100326.34
2022-11-04T23:48:32.465Z,100323.78
2022-11-04T23:51:56.263Z,100332.55
2022-11-04T23:55:19.586Z,100344.92
2022-11-04T23:58:43.416Z,100347.98
